createdAt,value
2022-10-10T00:01:33.383Z,78.76
2022-10-10T00:04:01.580Z,79.00
2022-10-10T00:06:33.066Z,79.63
2022-10-10T00:09:01.474Z,78.94
2022-10-10T00:11:29.358Z,79.92
2022-10-10T00:13:56.710Z,79.04
2022-10-10T00:16:23.747Z,78.50
2022-10-10T00:18:52.080Z,79.36
2022-10-10T00:21:19.227Z,78.99
2022-10-10T00:23:46.139Z,78.76
2022-10-10T00:26:18.515Z,79.40
2022-10-10T00:28:47.460Z,79.90
2022-10-10T00:31:14.972Z,79.44
2022-10-10T00:33:41.970Z,79.32
2022-10-10T00:36:08.987Z,79.39
2022-10-10T00:38:35.903Z,80.01
2022-10-10T00:41:04.209Z,79.07
2022-10-10T00:43:33.155Z,79.96
2022-10-10T00:46:00.226Z,79.24
2022-10-10T00:48:35.075Z,80.31
2022-10-10T00:51:14.942Z,80.84
2022-10-10T00:53:55.502Z,80.00
2022-10-10T00:56:37.929Z,80.03
2022-10-10T00:59:08.710Z,80.50
2022-10-10T01:01:35.682Z,80.68
2022-10-10T01:04:02.973Z,80.55
2022-10-10T01:06:31.198Z,80.25
2022-10-10T01:08:58.650Z,81.18
2022-10-10T01:11:57.595Z,80.08
2022-10-10T01:15:32.363Z,80.18
2022-10-10T01:18:20.666Z,79.88
2022-10-10T01:20:59.629Z,79.68
2022-10-10T01:24:02.734Z,80.96
2022-10-10T01:27:31.704Z,80.70
2022-10-10T01:30:08.785Z,80.98
2022-10-10T01:33:07.172Z,81.21
2022-10-10T01:36:26.331Z,81.63
2022-10-10T01:39:39.549Z,81.49
2022-10-10T01:42:43.623Z,81.64
2022-10-10T01:45:11.720Z,81.55
2022-10-10T01:47:39.105Z,81.11
2022-10-10T01:50:17.358Z,82.19
2022-10-10T01:53:05.512Z,81.43
2022-10-10T01:56:08.978Z,81.94
2022-10-10T01:59:27.338Z,82.80
2022-10-10T02:02:30.043Z,82.79
2022-10-10T02:05:08.831Z,81.71
2022-10-10T02:08:10.290Z,81.76
2022-10-10T02:11:00.650Z,81.79
2022-10-10T02:14:08.225Z,82.45
2022-10-10T02:16:41.008Z,81.47
2022-10-10T02:19:13.015Z,81.72
2022-10-10T02:21:42.405Z,81.63
2022-10-10T02:24:13.014Z,82.13
2022-10-10T02:26:46.839Z,81.88
2022-10-10T02:29:37.446Z,82.08
2022-10-10T02:32:22.406Z,82.46
2022-10-10T02:34:55.629Z,83.69
2022-10-10T02:37:24.299Z,84.27
2022-10-10T02:40:00.099Z,83.08
2022-10-10T02:42:28.857Z,83.72
2022-10-10T02:44:56.885Z,83.66
2022-10-10T02:47:23.982Z,83.88
2022-10-10T02:49:52.253Z,83.47
2022-10-10T02:52:19.719Z,84.51
2022-10-10T02:54:46.803Z,84.76
2022-10-10T02:57:14.096Z,84.37
2022-10-10T02:59:41.253Z,83.82
2022-10-10T03:02:08.349Z,84.57
2022-10-10T03:04:36.553Z,84.60
2022-10-10T03:07:04.723Z,85.10
2022-10-10T03:09:31.884Z,84.91
2022-10-10T03:11:58.868Z,85.17
2022-10-10T03:14:25.803Z,84.69
2022-10-10T03:16:53.070Z,84.68
2022-10-10T03:19:20.189Z,84.15
2022-10-10T03:21:47.196Z,83.90
2022-10-10T03:24:14.176Z,85.27
2022-10-10T03:26:41.213Z,85.39
2022-10-10T03:29:08.498Z,84.75
2022-10-10T03:31:35.426Z,84.75
2022-10-10T03:34:02.381Z,84.72
2022-10-10T03:36:30.740Z,84.97
2022-10-10T03:38:57.775Z,84.30
2022-10-10T03:41:24.757Z,83.64
2022-10-10T03:43:51.831Z,84.27
2022-10-10T03:46:18.748Z,84.11
2022-10-10T03:48:45.719Z,84.32
2022-10-10T03:51:15.966Z,84.39
2022-10-10T03:53:42.870Z,84.53
2022-10-10T03:56:09.781Z,84.47
2022-10-10T03:58:36.741Z,84.77
2022-10-10T04:01:05.197Z,84.26
2022-10-10T04:03:32.707Z,84.61
2022-10-10T04:05:59.985Z,84.34
2022-10-10T04:08:28.093Z,86.27
2022-10-10T04:10:55.654Z,85.59
2022-10-10T04:13:25.605Z,86.08
2022-10-10T04:15:55.606Z,85.88
2022-10-10T04:18:24.889Z,85.58
2022-10-10T04:20:52.586Z,85.50
2022-10-10T04:23:20.641Z,85.15
2022-10-10T04:25:51.381Z,85.48
2022-10-10T04:28:19.062Z,86.14
2022-10-10T04:30:46.468Z,85.49
2022-10-10T04:33:24.706Z,86.42
2022-10-10T04:35:51.614Z,85.57
2022-10-10T04:38:21.240Z,85.63
2022-10-10T04:40:51.301Z,85.50
2022-10-10T04:43:18.957Z,84.74
2022-10-10T04:45:46.190Z,85.89
2022-10-10T04:48:13.264Z,86.07
2022-10-10T04:50:40.403Z,85.03
2022-10-10T04:53:07.547Z,84.88
2022-10-10T04:55:34.817Z,84.90
2022-10-10T04:58:01.726Z,86.12
2022-10-10T05:00:28.761Z,85.83
2022-10-10T05:02:55.947Z,87.43
2022-10-10T05:05:22.967Z,86.02
2022-10-10T05:07:55.119Z,86.18
2022-10-10T05:10:26.050Z,86.06
2022-10-10T05:12:53.719Z,86.06
2022-10-10T05:15:24.456Z,86.30
2022-10-10T05:17:51.422Z,85.63
2022-10-10T05:20:18.416Z,86.47
2022-10-10T05:22:46.798Z,84.97
2022-10-10T05:25:16.110Z,84.81
2022-10-10T05:27:43.076Z,85.74
2022-10-10T05:30:11.018Z,85.91
2022-10-10T05:32:38.076Z,85.74
2022-10-10T05:35:06.218Z,85.49
2022-10-10T05:37:36.375Z,86.60
2022-10-10T05:40:04.238Z,86.25
2022-10-10T05:42:31.171Z,86.05
2022-10-10T05:44:58.510Z,86.01
2022-10-10T05:47:27.969Z,85.73
2022-10-10T05:49:55.287Z,86.63
2022-10-10T05:52:22.222Z,86.52
2022-10-10T05:54:49.183Z,85.86
2022-10-10T05:57:16.650Z,85.93
2022-10-10T05:59:43.658Z,84.70
2022-10-10T06:02:13.816Z,86.93
2022-10-10T06:04:41.337Z,85.66
2022-10-10T06:07:09.506Z,86.69
2022-10-10T06:09:36.532Z,86.11
2022-10-10T06:12:03.585Z,85.78
2022-10-10T06:14:30.531Z,86.11
2022-10-10T06:16:57.728Z,86.27
2022-10-10T06:19:24.730Z,85.13
2022-10-10T06:21:51.681Z,84.40
2022-10-10T06:24:18.764Z,84.47
2022-10-10T06:26:45.743Z,84.10
2022-10-10T06:29:12.852Z,83.75
2022-10-10T06:31:44.570Z,82.05
2022-10-10T06:34:11.625Z,81.98
2022-10-10T06:36:38.558Z,83.90
2022-10-10T06:39:05.512Z,81.71
2022-10-10T06:41:32.563Z,81.28
2022-10-10T06:43:59.468Z,81.92
2022-10-10T06:46:26.419Z,81.47
2022-10-10T06:48:53.322Z,81.75
2022-10-10T06:51:20.987Z,80.55
2022-10-10T06:53:48.054Z,81.58
2022-10-10T06:56:26.326Z,80.92
2022-10-10T06:58:54.346Z,80.61
2022-10-10T07:01:24.303Z,80.87
2022-10-10T07:03:51.372Z,80.16
2022-10-10T07:06:18.435Z,79.25
2022-10-10T07:08:45.434Z,78.78
2022-10-10T07:11:12.689Z,79.17
2022-10-10T07:13:40.409Z,77.78
2022-10-10T07:16:07.870Z,77.65
2022-10-10T07:18:36.721Z,78.26
2022-10-10T07:21:05.174Z,78.44
2022-10-10T07:23:34.927Z,77.25
2022-10-10T07:26:12.573Z,76.70
2022-10-10T07:28:40.169Z,76.95
2022-10-10T07:31:10.993Z,76.38
2022-10-10T07:33:49.936Z,76.78
2022-10-10T07:36:18.438Z,75.87
2022-10-10T07:38:49.752Z,75.67
2022-10-10T07:41:16.642Z,75.87
2022-10-10T07:43:43.683Z,76.12
2022-10-10T07:46:18.840Z,76.15
2022-10-10T07:48:46.589Z,75.17
2022-10-10T07:51:13.545Z,76.35
2022-10-10T07:53:41.388Z,74.35
2022-10-10T07:56:09.833Z,74.29
2022-10-10T07:58:37.151Z,74.16
2022-10-10T08:01:10.633Z,73.58
2022-10-10T08:03:38.201Z,73.42
2022-10-10T08:06:09.134Z,74.24
2022-10-10T08:08:44.846Z,73.84
2022-10-10T08:11:18.321Z,73.42
2022-10-10T08:13:45.332Z,73.73
2022-10-10T08:16:12.575Z,72.96
2022-10-10T08:18:39.742Z,74.43
2022-10-10T08:21:12.369Z,74.39
2022-10-10T08:23:40.140Z,74.04
2022-10-10T08:26:11.974Z,73.60
2022-10-10T08:28:40.169Z,74.08
2022-10-10T08:31:15.607Z,73.51
2022-10-10T08:33:45.964Z,73.06
2022-10-10T08:36:32.613Z,73.69
2022-10-10T08:39:00.966Z,72.93
2022-10-10T08:41:52.279Z,73.00
2022-10-10T08:44:51.499Z,71.89
2022-10-10T08:47:39.079Z,72.90
2022-10-10T08:50:21.406Z,71.67
2022-10-10T08:53:13.724Z,70.33
2022-10-10T08:55:43.870Z,69.94
2022-10-10T08:58:42.099Z,70.53
2022-10-10T09:01:28.078Z,70.02
2022-10-10T09:04:04.205Z,70.01
2022-10-10T09:06:53.991Z,67.58
2022-10-10T09:09:57.099Z,69.22
2022-10-10T09:13:18.979Z,67.59
2022-10-10T09:15:59.870Z,67.33
2022-10-10T09:19:00.766Z,66.19
2022-10-10T09:21:38.911Z,67.12
2022-10-10T09:24:42.603Z,66.29
2022-10-10T09:27:24.783Z,65.87
2022-10-10T09:30:20.111Z,66.53
2022-10-10T09:33:22.730Z,66.58
2022-10-10T09:35:52.772Z,66.42
2022-10-10T09:38:56.591Z,63.47
2022-10-10T09:41:40.958Z,64.10
2022-10-10T09:44:14.193Z,64.30
2022-10-10T09:46:41.204Z,61.94
2022-10-10T09:49:14.261Z,62.14
2022-10-10T09:51:41.302Z,61.17
2022-10-10T09:54:08.501Z,60.30
2022-10-10T09:56:50.913Z,60.71
2022-10-10T09:59:45.206Z,59.18
2022-10-10T10:06:38.468Z,59.79
2022-10-10T10:09:06.751Z,58.41
2022-10-10T10:11:41.688Z,59.77
2022-10-10T10:14:37.921Z,56.82
2022-10-10T10:17:16.968Z,59.46
2022-10-10T10:19:46.815Z,59.64
2022-10-10T10:22:38.326Z,59.61
2022-10-10T10:25:33.734Z,59.97
2022-10-10T10:28:12.908Z,59.28
2022-10-10T10:30:40.957Z,59.11
2022-10-10T10:33:47.864Z,56.69
2022-10-10T10:36:46.709Z,57.94
2022-10-10T10:39:55.205Z,58.03
2022-10-10T10:42:52.806Z,58.81
2022-10-10T10:46:01.263Z,59.52
2022-10-10T10:49:10.189Z,58.95
2022-10-10T10:52:04.610Z,58.46
2022-10-10T10:55:14.548Z,57.73
2022-10-10T10:59:22.545Z,57.92
2022-10-10T11:01:58.016Z,56.02
2022-10-10T11:05:21.128Z,55.05
2022-10-10T11:08:24.503Z,56.72
2022-10-10T11:11:37.341Z,54.92
2022-10-10T11:15:16.164Z,56.96
2022-10-10T11:18:10.710Z,53.27
2022-10-10T11:20:55.262Z,53.28
2022-10-10T11:23:52.523Z,51.86
2022-10-10T11:26:42.237Z,54.29
2022-10-10T11:29:34.299Z,53.53
2022-10-10T11:32:22.148Z,52.32
2022-10-10T11:35:13.457Z,52.08
2022-10-10T11:37:49.265Z,52.81
2022-10-10T11:41:02.854Z,52.70
2022-10-10T11:44:28.390Z,50.80
2022-10-10T11:47:29.636Z,50.64
2022-10-10T11:50:27.462Z,52.95
2022-10-10T11:53:44.262Z,51.50
2022-10-10T11:56:41.216Z,51.69
2022-10-10T11:59:27.838Z,52.24
2022-10-10T12:02:02.553Z,51.69
2022-10-10T12:04:37.195Z,51.58
2022-10-10T12:07:18.393Z,49.83
2022-10-10T12:10:00.437Z,50.23
2022-10-10T12:12:44.029Z,50.49
2022-10-10T12:15:26.513Z,51.14
2022-10-10T12:17:53.878Z,52.14
2022-10-10T12:20:20.563Z,50.49
2022-10-10T12:23:30.889Z,51.50
2022-10-10T12:25:58.372Z,50.39
2022-10-10T12:29:02.887Z,51.74
2022-10-10T12:31:38.425Z,49.44
2022-10-10T12:34:48.434Z,51.14
2022-10-10T12:37:32.087Z,49.53
2022-10-10T12:40:08.125Z,51.91
2022-10-10T12:42:48.408Z,50.50
2022-10-10T12:45:38.445Z,51.96
2022-10-10T12:48:19.924Z,51.84
2022-10-10T12:51:01.509Z,53.81
2022-10-10T12:53:34.077Z,53.87
2022-10-10T12:56:03.018Z,50.91
2022-10-10T12:58:39.801Z,51.60
2022-10-10T13:01:29.115Z,51.77
2022-10-10T13:03:56.641Z,49.81
2022-10-10T13:06:43.461Z,50.47
2022-10-10T13:09:35.088Z,50.69
2022-10-10T13:12:06.985Z,49.72
2022-10-10T13:14:45.503Z,50.65
2022-10-10T13:17:31.565Z,49.37
2022-10-10T13:20:01.713Z,51.44
2022-10-10T13:22:33.013Z,49.66
2022-10-10T13:25:17.730Z,49.72
2022-10-10T13:27:44.936Z,50.09
2022-10-10T13:30:22.685Z,51.25
2022-10-10T13:32:51.434Z,49.02
2022-10-10T13:35:27.469Z,50.40
2022-10-10T13:38:00.841Z,50.62
2022-10-10T13:40:28.602Z,49.93
2022-10-10T13:42:56.437Z,50.42
2022-10-10T13:45:27.897Z,51.16
2022-10-10T13:48:03.347Z,50.83
2022-10-10T13:51:14.803Z,52.09
2022-10-10T13:53:47.443Z,52.89
2022-10-10T13:56:23.189Z,53.43
2022-10-10T13:59:13.651Z,53.72
2022-10-10T14:01:54.610Z,51.66
2022-10-10T14:04:50.792Z,52.63
2022-10-10T14:07:30.818Z,51.83
2022-10-10T14:10:10.316Z,52.10
2022-10-10T14:12:53.508Z,52.62
2022-10-10T14:15:40.653Z,51.43
2022-10-10T14:18:26.528Z,53.34
2022-10-10T14:20:53.934Z,51.62
2022-10-10T14:23:21.894Z,51.63
2022-10-10T14:25:49.963Z,51.71
2022-10-10T14:28:26.073Z,50.88
2022-10-10T14:30:56.240Z,52.04
2022-10-10T14:33:23.857Z,52.05
2022-10-10T14:35:53.731Z,51.67
2022-10-10T14:38:21.282Z,52.20
2022-10-10T14:40:52.869Z,51.25
2022-10-10T14:43:20.722Z,52.18
2022-10-10T14:45:51.656Z,52.28
2022-10-10T14:48:19.118Z,51.32
2022-10-10T14:50:49.147Z,51.20
2022-10-10T14:53:17.030Z,52.56
2022-10-10T14:55:45.688Z,53.16
2022-10-10T14:58:22.067Z,52.58
2022-10-10T15:00:51.440Z,52.81
2022-10-10T15:03:18.979Z,54.01
2022-10-10T15:05:48.302Z,53.45
2022-10-10T15:08:18.571Z,54.41
2022-10-10T15:10:46.660Z,55.02
2022-10-10T15:13:15.593Z,54.85
2022-10-10T15:15:42.674Z,55.02
2022-10-10T15:18:32.113Z,56.85
2022-10-10T15:20:56.870Z,56.24
2022-10-10T15:23:23.834Z,56.60
2022-10-10T15:25:50.818Z,57.19
2022-10-10T15:28:17.825Z,57.89
2022-10-10T15:30:48.005Z,58.25
2022-10-10T15:33:15.131Z,59.79
2022-10-10T15:36:07.428Z,59.71
2022-10-10T15:38:32.696Z,58.62
2022-10-10T15:41:09.487Z,60.43
2022-10-10T15:43:54.386Z,60.20
2022-10-10T15:46:27.204Z,60.75
2022-10-10T15:48:59.421Z,60.80
2022-10-10T15:51:27.863Z,61.07
2022-10-10T15:53:59.616Z,61.00
2022-10-10T15:56:27.453Z,61.87
2022-10-10T15:59:01.013Z,61.60
2022-10-10T16:01:30.010Z,61.69
2022-10-10T16:03:58.477Z,61.92
2022-10-10T16:06:26.179Z,61.70
2022-10-10T16:09:10.124Z,62.33
2022-10-10T16:11:41.316Z,63.09
2022-10-10T16:14:08.329Z,63.30
2022-10-10T16:16:35.504Z,62.79
2022-10-10T16:19:02.625Z,63.03
2022-10-10T16:21:30.507Z,64.07
2022-10-10T16:23:58.251Z,63.54
2022-10-10T16:26:32.362Z,63.38
2022-10-10T16:29:01.432Z,63.78
2022-10-10T16:31:31.176Z,64.86
2022-10-10T16:33:59.279Z,64.92
2022-10-10T16:36:33.662Z,64.80
2022-10-10T16:39:09.836Z,65.74
2022-10-10T16:41:52.680Z,66.66
2022-10-10T16:44:19.664Z,67.38
2022-10-10T16:46:46.685Z,68.44
2022-10-10T16:49:20.381Z,69.25
2022-10-10T16:51:53.581Z,71.21
2022-10-10T16:54:20.639Z,71.86
2022-10-10T16:56:47.666Z,71.64
2022-10-10T16:59:14.854Z,72.50
2022-10-10T17:01:44.445Z,72.03
2022-10-10T17:04:15.369Z,71.41
2022-10-10T17:06:42.277Z,73.20
2022-10-10T17:09:11.334Z,73.08
2022-10-10T17:11:38.476Z,74.43
2022-10-10T17:14:05.431Z,73.31
2022-10-10T17:19:26.862Z,74.24
2022-10-10T17:21:53.891Z,75.33
2022-10-10T17:24:21.009Z,76.04
2022-10-10T17:26:48.209Z,75.98
2022-10-10T17:29:15.192Z,76.70
2022-10-10T17:31:42.627Z,77.07
2022-10-10T17:34:09.625Z,78.01
2022-10-10T17:36:36.634Z,77.40
2022-10-10T17:39:04.077Z,77.88
2022-10-10T17:41:33.169Z,78.33
2022-10-10T17:44:00.218Z,78.06
2022-10-10T17:46:34.823Z,78.62
2022-10-10T17:49:08.865Z,79.65
2022-10-10T17:51:38.554Z,80.26
2022-10-10T17:54:06.830Z,79.99
2022-10-10T17:56:34.668Z,80.75
2022-10-10T17:59:02.473Z,81.13
2022-10-10T18:01:33.008Z,80.71
2022-10-10T18:04:00.547Z,80.75
2022-10-10T18:06:29.103Z,79.50
2022-10-10T18:08:57.692Z,80.61
2022-10-10T18:11:30.118Z,78.87
2022-10-10T18:14:00.665Z,78.95
2022-10-10T18:16:33.858Z,78.94
2022-10-10T18:19:07.364Z,78.61
2022-10-10T18:21:35.106Z,78.17
2022-10-10T18:24:02.106Z,76.46
2022-10-10T18:26:31.062Z,77.93
2022-10-10T18:28:58.605Z,80.18
2022-10-10T18:31:33.612Z,77.92
2022-10-10T18:34:02.576Z,79.64
2022-10-10T18:36:33.909Z,79.63
2022-10-10T18:39:07.833Z,77.78
2022-10-10T18:41:35.335Z,78.18
2022-10-10T18:44:11.244Z,79.09
2022-10-10T18:46:39.910Z,80.72
2022-10-10T18:49:10.905Z,81.88
2022-10-10T18:51:39.777Z,80.33
2022-10-10T18:54:09.689Z,79.31
2022-10-10T18:56:40.065Z,79.45
2022-10-10T18:59:13.520Z,79.08
2022-10-10T19:01:40.693Z,79.55
2022-10-10T19:04:10.070Z,80.17
2022-10-10T19:06:39.725Z,79.06
2022-10-10T19:09:11.359Z,79.14
2022-10-10T19:11:43.040Z,79.88
2022-10-10T19:14:15.078Z,81.04
2022-10-10T19:16:43.859Z,80.97
2022-10-10T19:19:15.355Z,80.51
2022-10-10T19:21:44.858Z,81.06
2022-10-10T19:24:19.575Z,81.06
2022-10-10T19:26:52.018Z,81.54
2022-10-10T19:29:19.594Z,79.61
2022-10-10T19:31:46.601Z,80.74
2022-10-10T19:34:13.671Z,80.56
2022-10-10T19:36:42.257Z,81.24
2022-10-10T19:39:09.742Z,81.27
2022-10-10T19:41:36.878Z,80.69
2022-10-10T19:44:05.531Z,80.28
2022-10-10T19:46:36.635Z,81.08
2022-10-10T19:49:05.061Z,81.97
2022-10-10T19:51:32.265Z,81.68
2022-10-10T19:53:59.262Z,82.05
2022-10-10T19:56:27.539Z,83.06
2022-10-10T19:59:00.739Z,82.77
2022-10-10T20:01:30.334Z,83.87
2022-10-10T20:03:58.488Z,83.39
2022-10-10T20:06:26.292Z,82.98
2022-10-10T20:08:53.367Z,82.62
2022-10-10T20:11:21.414Z,81.38
2022-10-10T20:13:53.091Z,81.38
2022-10-10T20:16:22.307Z,81.12
2022-10-10T20:18:49.284Z,82.15
2022-10-10T20:21:25.411Z,81.95
2022-10-10T20:23:52.434Z,80.48
2022-10-10T20:26:23.480Z,80.77
2022-10-10T20:28:51.793Z,80.86
2022-10-10T20:31:35.391Z,80.62
2022-10-10T20:34:05.432Z,80.38
2022-10-10T20:36:34.628Z,79.91
2022-10-10T20:39:08.249Z,80.83
2022-10-10T20:41:38.430Z,80.41
2022-10-10T20:44:07.843Z,80.28
2022-10-10T20:46:38.981Z,80.28
2022-10-10T20:49:16.062Z,81.08
2022-10-10T20:51:48.167Z,81.10
2022-10-10T20:54:19.287Z,80.30
2022-10-10T20:56:48.428Z,77.51
2022-10-10T20:59:16.706Z,77.57
2022-10-10T21:01:45.634Z,76.21
2022-10-10T21:04:16.299Z,76.18
2022-10-10T21:06:43.398Z,77.23
2022-10-10T21:09:14.900Z,77.38
2022-10-10T21:11:42.511Z,76.27
2022-10-10T21:14:10.728Z,75.46
2022-10-10T21:16:41.068Z,76.57
2022-10-10T21:19:12.695Z,76.17
2022-10-10T21:21:40.549Z,75.22
2022-10-10T21:24:12.813Z,77.31
2022-10-10T21:26:41.671Z,77.59
2022-10-10T21:29:09.559Z,76.89
2022-10-10T21:31:39.610Z,78.71
2022-10-10T21:34:13.368Z,77.97
2022-10-10T21:36:40.307Z,78.87
2022-10-10T21:39:07.401Z,78.65
2022-10-10T21:41:36.486Z,77.98
2022-10-10T21:44:03.842Z,78.66
2022-10-10T21:46:36.552Z,80.82
2022-10-10T21:49:10.747Z,79.22
2022-10-10T21:51:42.594Z,79.50
2022-10-10T21:54:10.206Z,81.54
2022-10-10T21:56:38.284Z,80.99
2022-10-10T21:59:05.687Z,81.80
2022-10-10T22:01:33.304Z,81.31
2022-10-10T22:04:02.606Z,82.25
2022-10-10T22:06:30.377Z,81.40
2022-10-10T22:09:00.368Z,81.99
2022-10-10T22:11:30.498Z,82.80
2022-10-10T22:13:57.891Z,83.66
2022-10-10T22:16:25.027Z,83.17
2022-10-10T22:18:56.886Z,84.58
2022-10-10T22:21:29.983Z,83.12
2022-10-10T22:24:04.948Z,82.28
2022-10-10T22:26:32.055Z,83.28
2022-10-10T22:28:59.450Z,83.53
2022-10-10T22:31:26.947Z,84.20
2022-10-10T22:33:53.914Z,84.26
2022-10-10T22:36:20.860Z,84.27
2022-10-10T22:38:47.797Z,82.96
2022-10-10T22:41:14.860Z,84.68
2022-10-10T22:43:41.829Z,83.51
2022-10-10T22:46:09.553Z,83.21
2022-10-10T22:48:37.330Z,82.94
2022-10-10T22:51:16.102Z,83.60
2022-10-10T22:53:45.735Z,84.97
2022-10-10T22:56:16.215Z,84.51
2022-10-10T22:58:44.014Z,84.39
2022-10-10T23:01:18.530Z,84.79
2022-10-10T23:03:45.763Z,84.56
2022-10-10T23:06:13.529Z,85.54
2022-10-10T23:08:40.812Z,83.64
2022-10-10T23:11:07.984Z,83.98
2022-10-10T23:13:34.925Z,85.32
2022-10-10T23:16:02.413Z,84.36
2022-10-10T23:18:30.752Z,83.83
2022-10-10T23:20:59.269Z,84.14
2022-10-10T23:23:26.607Z,84.72
2022-10-10T23:25:53.636Z,83.84
2022-10-10T23:28:20.803Z,83.74
2022-10-10T23:30:48.826Z,84.11
2022-10-10T23:33:17.138Z,83.78
2022-10-10T23:35:44.049Z,83.14
2022-10-10T23:38:11.246Z,85.04
2022-10-10T23:40:38.250Z,84.72
2022-10-10T23:43:07.257Z,83.61
2022-10-10T23:45:34.240Z,83.99
2022-10-10T23:48:01.161Z,84.38
2022-10-10T23:50:29.307Z,84.56
2022-10-10T23:52:56.428Z,83.90
2022-10-10T23:55:23.408Z,84.54
2022-10-10T23:57:50.406Z,84.08
